createdAt,value
2019-03-03T00:00:22.513Z,8.23
2019-03-03T00:05:41.189Z,8.18
2019-03-03T00:10:59.796Z,8.16
2019-03-03T00:16:19.183Z,8.07
2019-03-03T00:21:37.741Z,8.05
2019-03-03T00:26:58.375Z,8.03
2019-03-03T00:32:16.992Z,8.14
2019-03-03T00:37:39.905Z,8.28
2019-03-03T00:43:03.177Z,8.34
2019-03-03T00:48:26.672Z,8.39
2019-03-03T00:53:49.834Z,8.40
2019-03-03T00:59:10.089Z,8.42
2019-03-03T01:04:33.415Z,8.53
2019-03-03T01:09:56.335Z,8.55
2019-03-03T01:15:19.866Z,8.50
2019-03-03T01:20:40.126Z,8.55
2019-03-03T01:25:58.752Z,8.56
2019-03-03T01:31:17.382Z,8.55
2019-03-03T01:36:35.995Z,8.50
2019-03-03T01:41:54.547Z,8.62
2019-03-03T01:47:13.547Z,8.61
2019-03-03T01:52:35.181Z,8.58
2019-03-03T01:57:53.921Z,8.52
2019-03-03T02:03:12.537Z,8.56
2019-03-03T02:08:31.166Z,8.53
2019-03-03T02:13:49.707Z,8.55
2019-03-03T02:19:08.469Z,8.54
2019-03-03T02:24:26.963Z,8.54
2019-03-03T02:29:45.507Z,8.43
2019-03-03T02:35:04.639Z,8.32
2019-03-03T02:40:23.249Z,8.28
2019-03-03T02:45:41.860Z,8.18
2019-03-03T02:51:00.429Z,8.18
2019-03-03T02:56:18.973Z,8.25
2019-03-03T03:01:39.261Z,8.22
2019-03-03T03:07:03.779Z,8.17
2019-03-03T03:12:27.011Z,8.22
2019-03-03T03:17:47.302Z,8.24
2019-03-03T03:23:07.697Z,8.32
2019-03-03T03:28:30.899Z,8.35
2019-03-03T03:34:00.162Z,8.31
2019-03-03T03:39:20.349Z,8.26
2019-03-03T03:44:46.341Z,8.29
2019-03-03T03:50:29.896Z,8.32
2019-03-03T03:56:06.715Z,8.37
2019-03-03T04:01:27.076Z,8.46
2019-03-03T04:06:59.306Z,8.40
2019-03-03T04:12:28.520Z,8.45
2019-03-03T04:17:48.747Z,8.43
2019-03-03T04:23:15.160Z,8.35
2019-03-03T04:28:41.065Z,8.34
2019-03-03T04:34:03.983Z,8.34
2019-03-03T04:39:32.938Z,8.29
2019-03-03T04:44:56.230Z,8.27
2019-03-03T04:50:16.476Z,8.31
2019-03-03T04:55:36.655Z,8.28
2019-03-03T05:01:13.226Z,8.25
2019-03-03T05:06:36.162Z,8.24
2019-03-03T05:12:20.084Z,8.15
2019-03-03T05:17:49.274Z,8.11
2019-03-03T05:23:07.852Z,8.08
2019-03-03T05:28:26.392Z,8.16
2019-03-03T05:33:44.918Z,8.26
2019-03-03T05:39:04.548Z,8.25
2019-03-03T05:44:23.146Z,8.30
2019-03-03T05:49:41.951Z,8.27
2019-03-03T05:55:00.567Z,8.24
2019-03-03T06:00:19.900Z,8.18
2019-03-03T06:05:38.648Z,8.22
2019-03-03T06:10:57.210Z,8.19
2019-03-03T06:16:15.787Z,8.36
2019-03-03T06:21:34.408Z,8.36
2019-03-03T06:26:53.022Z,8.42
2019-03-03T06:32:11.579Z,8.49
2019-03-03T06:37:30.054Z,8.59
2019-03-03T06:42:48.582Z,8.61
2019-03-03T06:48:29.205Z,8.59
2019-03-03T06:53:48.024Z,8.51
2019-03-03T06:59:14.235Z,8.39
2019-03-03T07:04:32.842Z,8.32
2019-03-03T07:09:51.403Z,8.32
2019-03-03T07:15:12.778Z,8.27
2019-03-03T07:20:31.329Z,8.18
2019-03-03T07:25:50.250Z,8.18
2019-03-03T07:31:08.956Z,8.14
2019-03-03T07:36:27.448Z,8.15
2019-03-03T07:41:46.280Z,8.17
2019-03-03T07:47:06.396Z,8.19
2019-03-03T07:52:25.085Z,8.28
2019-03-03T07:57:43.837Z,8.30
2019-03-03T08:03:02.557Z,8.38
2019-03-03T08:08:21.355Z,8.44
2019-03-03T08:13:40.156Z,8.52
2019-03-03T08:18:58.874Z,8.47
2019-03-03T08:24:17.510Z,8.46
2019-03-03T08:29:36.213Z,8.52
2019-03-03T08:34:54.769Z,8.54
2019-03-03T08:40:13.543Z,8.52
2019-03-03T08:45:40.084Z,8.50
2019-03-03T08:51:00.401Z,8.63
2019-03-03T08:56:24.986Z,8.63
2019-03-03T09:01:48.209Z,8.66
2019-03-03T09:07:19.468Z,8.77
2019-03-03T09:12:41.146Z,8.85
2019-03-03T09:18:17.648Z,8.85
2019-03-03T09:23:37.913Z,8.86
2019-03-03T09:28:58.250Z,8.85
2019-03-03T09:34:24.383Z,8.89
2019-03-03T09:39:44.556Z,8.93
2019-03-03T09:45:04.834Z,8.96
2019-03-03T09:50:34.559Z,8.93
2019-03-03T09:56:03.987Z,9.07
2019-03-03T10:01:30.460Z,9.06
2019-03-03T10:07:08.947Z,9.09
2019-03-03T10:12:41.478Z,9.15
2019-03-03T10:18:22.932Z,9.20
2019-03-03T10:23:59.338Z,9.24
2019-03-03T10:29:22.718Z,9.36
2019-03-03T10:34:51.965Z,9.30
2019-03-03T10:40:12.332Z,9.31
2019-03-03T10:45:32.608Z,9.33
2019-03-03T10:50:52.860Z,9.40
2019-03-03T10:56:25.110Z,9.43
2019-03-03T11:01:48.304Z,9.47
2019-03-03T11:07:08.578Z,9.51
2019-03-03T11:12:31.526Z,9.57
2019-03-03T11:17:57.813Z,9.66
2019-03-03T11:23:19.793Z,9.66
2019-03-03T11:28:49.165Z,9.64
2019-03-03T11:34:24.801Z,9.70
2019-03-03T11:39:47.565Z,9.64
2019-03-03T11:45:10.898Z,9.68
2019-03-03T11:50:37.546Z,9.72
2019-03-03T11:56:01.027Z,9.82
2019-03-03T12:01:24.024Z,9.92
2019-03-03T12:06:44.284Z,9.98
2019-03-03T12:12:07.335Z,9.99
2019-03-03T12:17:30.584Z,10.01
2019-03-03T12:22:50.973Z,10.01
2019-03-03T12:28:27.460Z,10.02
2019-03-03T12:33:53.294Z,10.04
2019-03-03T12:39:13.870Z,10.09
2019-03-03T12:44:34.136Z,10.04
2019-03-03T12:49:57.606Z,10.09
2019-03-03T12:55:20.707Z,10.06
2019-03-03T13:00:41.102Z,10.08
2019-03-03T13:06:04.737Z,10.06
2019-03-03T13:11:30.770Z,10.00
2019-03-03T13:16:51.336Z,9.95
2019-03-03T13:22:11.732Z,9.92
2019-03-03T13:27:34.709Z,9.98
2019-03-03T13:33:06.912Z,10.05
2019-03-03T13:38:27.102Z,10.04
2019-03-03T13:43:45.659Z,10.03
2019-03-03T13:49:04.310Z,10.10
2019-03-03T13:54:22.899Z,10.18
2019-03-03T13:59:41.555Z,10.19
2019-03-03T14:05:00.408Z,10.25
2019-03-03T14:10:19.043Z,10.20
2019-03-03T14:15:37.997Z,10.22
2019-03-03T14:20:56.623Z,10.25
2019-03-03T14:26:15.250Z,10.26
2019-03-03T14:31:33.805Z,10.21
2019-03-03T14:36:52.690Z,10.15
2019-03-03T14:42:11.342Z,10.20
2019-03-03T14:47:29.955Z,10.28
2019-03-03T14:52:50.864Z,10.37
2019-03-03T14:58:09.780Z,10.41
2019-03-03T15:03:28.602Z,10.38
2019-03-03T15:08:47.277Z,10.44
2019-03-03T15:14:05.923Z,10.45
2019-03-03T15:19:24.549Z,10.43
2019-03-03T15:24:43.147Z,10.43
2019-03-03T15:30:01.765Z,10.48
2019-03-03T15:35:20.384Z,10.47
2019-03-03T15:40:39.007Z,10.49
2019-03-03T15:45:57.631Z,10.52
2019-03-03T15:51:16.253Z,10.59
2019-03-03T15:56:35.178Z,10.62
2019-03-03T16:01:53.744Z,10.71
2019-03-03T16:07:12.378Z,10.67
2019-03-03T16:12:30.938Z,10.65
2019-03-03T16:17:49.752Z,10.68
2019-03-03T16:23:08.471Z,10.64
2019-03-03T16:28:27.060Z,10.70
2019-03-03T16:33:45.762Z,10.67
2019-03-03T16:39:06.220Z,10.69
2019-03-03T16:44:24.751Z,10.64
2019-03-03T16:49:43.452Z,10.59
2019-03-03T16:55:02.174Z,10.62
2019-03-03T17:00:22.257Z,10.66
2019-03-03T17:05:40.792Z,10.71
2019-03-03T17:10:59.463Z,10.68
2019-03-03T17:16:18.082Z,10.72
2019-03-03T17:21:36.727Z,10.69
2019-03-03T17:26:55.544Z,10.72
2019-03-03T17:32:14.148Z,10.71
2019-03-03T17:37:32.943Z,10.77
2019-03-03T17:42:51.574Z,10.76
2019-03-03T17:48:10.671Z,10.78
2019-03-03T17:53:29.285Z,10.76
2019-03-03T17:58:48.427Z,10.73
2019-03-03T18:04:07.128Z,10.76
2019-03-03T18:09:25.781Z,10.73
2019-03-03T18:14:44.395Z,10.76
2019-03-03T18:20:03.226Z,10.71
2019-03-03T18:25:22.357Z,10.63
2019-03-03T18:30:40.978Z,10.64
2019-03-03T18:36:01.397Z,10.65
2019-03-03T18:41:21.740Z,10.65
2019-03-03T18:46:41.707Z,10.69
2019-03-03T18:52:00.928Z,10.61
2019-03-03T18:57:21.215Z,10.80
2019-03-03T19:02:41.421Z,10.63
2019-03-03T19:08:00.050Z,10.49
2019-03-03T19:13:18.938Z,10.51
2019-03-03T19:18:37.562Z,10.51
2019-03-03T19:23:56.185Z,10.59
2019-03-03T19:29:14.839Z,10.65
2019-03-03T19:34:33.395Z,10.57
2019-03-03T19:39:53.145Z,10.73
2019-03-03T19:45:28.373Z,10.83
2019-03-03T19:50:47.143Z,10.82
2019-03-03T19:56:05.998Z,10.86
2019-03-03T20:01:24.624Z,10.74
2019-03-03T20:06:44.610Z,10.75
2019-03-03T20:12:03.337Z,10.77
2019-03-03T20:17:22.138Z,10.76
2019-03-03T20:22:41.073Z,10.76
2019-03-03T20:28:01.779Z,10.75
2019-03-03T20:33:20.760Z,10.79
2019-03-03T20:38:39.439Z,10.74
2019-03-03T20:43:59.514Z,10.92
2019-03-03T20:49:21.879Z,10.71
2019-03-03T20:54:40.609Z,10.56
2019-03-03T20:59:59.283Z,10.44
2019-03-03T21:05:18.061Z,10.43
2019-03-03T21:10:36.763Z,10.51
2019-03-03T21:15:55.453Z,10.55
2019-03-03T21:21:14.020Z,10.63
2019-03-03T21:26:32.753Z,10.72
2019-03-03T21:31:51.444Z,10.77
2019-03-03T21:37:10.215Z,10.84
2019-03-03T21:42:28.764Z,10.71
2019-03-03T21:47:47.360Z,10.59
2019-03-03T21:53:05.908Z,10.69
2019-03-03T21:58:24.460Z,10.76
2019-03-03T22:03:43.073Z,10.77
2019-03-03T22:09:01.697Z,10.87
2019-03-03T22:14:20.232Z,10.87
2019-03-03T22:19:40.247Z,10.86
2019-03-03T22:24:58.741Z,10.95
2019-03-03T22:30:18.753Z,10.95
2019-03-03T22:35:37.366Z,10.99
2019-03-03T22:40:55.853Z,10.93
2019-03-03T22:46:14.316Z,10.96
2019-03-03T22:51:32.959Z,11.02
2019-03-03T22:56:51.534Z,11.03
2019-03-03T23:02:10.949Z,11.01
2019-03-03T23:07:38.371Z,11.05
2019-03-03T23:12:59.876Z,10.96
2019-03-03T23:19:00.106Z,10.67
2019-03-03T23:24:52.205Z,10.71
2019-03-03T23:30:10.813Z,10.74
2019-03-03T23:35:31.463Z,10.96
2019-03-03T23:40:50.082Z,10.98
2019-03-03T23:46:08.698Z,11.10
2019-03-03T23:51:27.255Z,11.18
2019-03-03T23:56:45.849Z,11.29
